N673CK KCOS-
Flight info
| Callsign | N673CK |
|---|---|
| Flight time | N/A |
| Altitude | VFR |
| Route | PATTERNWORK |
| Aircraft | C172/L-VGD/C |
Departure
| Time | 2026-04-19 04:02 |
|---|---|
| Airport | City of Colorado Springs Municipal Airport (KCOS) |
Arrival
| Time | N/A |
|---|---|
| Airport | - |
| Time | Latitude | Longitude | Altitude | Speed | Heading |
|---|---|---|---|---|---|
| 2026-04-19 03:53 | 38.80276 | -104.70721 | 6146 ft | 6 kts | 272° |
| 2026-04-19 03:53 | 38.80275 | -104.70764 | 6146 ft | 4 kts | 259° |
| 2026-04-19 03:53 | 38.80272 | -104.70801 | 6146 ft | 6 kts | 275° |
| 2026-04-19 03:53 | 38.80277 | -104.70880 | 6146 ft | 12 kts | 272° |
| 2026-04-19 03:54 | 38.80275 | -104.71069 | 6146 ft | 35 kts | 266° |
| 2026-04-19 03:54 | 38.80278 | -104.71265 | 6146 ft | 17 kts | 272° |
| 2026-04-19 03:54 | 38.80335 | -104.71347 | 6147 ft | 13 kts | 359° |
| 2026-04-19 03:54 | 38.80409 | -104.71347 | 6148 ft | 9 kts | 0° |
| 2026-04-19 03:55 | 38.80465 | -104.71347 | 6149 ft | 9 kts | 1° |
| 2026-04-19 03:55 | 38.80530 | -104.71347 | 6150 ft | 10 kts | 2° |
| 2026-04-19 03:55 | 38.80605 | -104.71343 | 6151 ft | 12 kts | 358° |
| 2026-04-19 03:55 | 38.80690 | -104.71344 | 6152 ft | 13 kts | 359° |
| 2026-04-19 03:56 | 38.80838 | -104.71345 | 6155 ft | 37 kts | 353° |
| 2026-04-19 03:56 | 38.81175 | -104.71345 | 6160 ft | 45 kts | 3° |
| 2026-04-19 03:56 | 38.81407 | -104.71344 | 6164 ft | 29 kts | 359° |
| 2026-04-19 03:56 | 38.81603 | -104.71343 | 6167 ft | 27 kts | 1° |
| 2026-04-19 03:57 | 38.81782 | -104.71343 | 6170 ft | 25 kts | 1° |
| 2026-04-19 03:57 | 38.81935 | -104.71347 | 6172 ft | 16 kts | 12° |
| 2026-04-19 03:57 | 38.82047 | -104.71343 | 6174 ft | 17 kts | 4° |
| 2026-04-19 03:57 | 38.82060 | -104.71214 | 6184 ft | 30 kts | 134° |
| 2026-04-19 03:58 | 38.81829 | -104.70915 | 6171 ft | 63 kts | 138° |
| 2026-04-19 03:58 | 38.81479 | -104.70466 | 6253 ft | 72 kts | 137° |
| 2026-04-19 03:58 | 38.81259 | -104.69936 | 6374 ft | 80 kts | 62° |
| 2026-04-19 03:58 | 38.81778 | -104.70127 | 6375 ft | 98 kts | 317° |
| 2026-04-19 03:59 | 38.82302 | -104.70725 | 6441 ft | 105 kts | 318° |
| 2026-04-19 03:59 | 38.82867 | -104.71361 | 6469 ft | 110 kts | 317° |
| 2026-04-19 03:59 | 38.83430 | -104.72012 | 6540 ft | 104 kts | 314° |
| 2026-04-19 03:59 | 38.83928 | -104.72649 | 6606 ft | 99 kts | 315° |
| 2026-04-19 04:00 | 38.83984 | -104.73318 | 6661 ft | 88 kts | 191° |
| 2026-04-19 04:00 | 38.83439 | -104.72954 | 6583 ft | 100 kts | 138° |
| 2026-04-19 04:00 | 38.82929 | -104.72288 | 6423 ft | 108 kts | 137° |
| 2026-04-19 04:00 | 38.82434 | -104.71700 | 6252 ft | 90 kts | 137° |
| 2026-04-19 04:01 | 38.82032 | -104.71177 | 6183 ft | 72 kts | 137° |
| 2026-04-19 04:01 | 38.81368 | -104.70310 | 6350 ft | 70 kts | 137° |
| 2026-04-19 04:01 | 38.81017 | -104.69852 | 6472 ft | 73 kts | 137° |
| 2026-04-19 04:02 | 38.80657 | -104.69320 | 6527 ft | 85 kts | 132° |
| 2026-04-19 04:02 | 38.80288 | -104.68677 | 6633 ft | 87 kts | 129° |
| 2026-04-19 04:02 | 38.79937 | -104.68047 | 6705 ft | 88 kts | 120° |
| 2026-04-19 04:02 | 38.79706 | -104.67338 | 6809 ft | 82 kts | 124° |
| 2026-04-19 04:03 | 38.79413 | -104.66724 | 6928 ft | 80 kts | 93° |
| 2026-04-19 04:03 | 38.79490 | -104.67213 | 6171 ft | 68 kts | 224° |
| 2026-04-19 04:03 | 38.79466 | -104.67287 | 6126 ft | 18 kts | 355° |
| 2026-04-19 04:03 | 38.79704 | -104.67292 | 6133 ft | 49 kts | 5° |
| 2026-04-19 04:04 | 38.79854 | -104.66963 | 6143 ft | 55 kts | 130° |
| 2026-04-19 04:04 | 38.79585 | -104.66596 | 6194 ft | 67 kts | 130° |
| 2026-04-19 04:04 | 38.79308 | -104.66053 | 6354 ft | 70 kts | 89° |
| 2026-04-19 04:04 | 38.79722 | -104.65598 | 6422 ft | 84 kts | 37° |
| 2026-04-19 04:05 | 38.80177 | -104.65167 | 6584 ft | 80 kts | 49° |
| 2026-04-19 04:05 | 38.80603 | -104.64668 | 6699 ft | 82 kts | 44° |
| 2026-04-19 04:05 | 38.81055 | -104.64197 | 6819 ft | 85 kts | 44° |
| 2026-04-19 04:05 | 38.81523 | -104.63717 | 6935 ft | 88 kts | 40° |
| 2026-04-19 04:06 | 38.82029 | -104.63288 | 7106 ft | 88 kts | 12° |
| 2026-04-19 04:06 | 38.82506 | -104.63725 | 7180 ft | 90 kts | 306° |
| 2026-04-19 04:06 | 38.83000 | -104.64301 | 7260 ft | 100 kts | 313° |
| 2026-04-19 04:06 | 38.83472 | -104.64877 | 7450 ft | 92 kts | 313° |
| 2026-04-19 04:07 | 38.83758 | -104.65554 | 7264 ft | 94 kts | 264° |
| 2026-04-19 04:07 | 38.83849 | -104.66469 | 6856 ft | 110 kts | 280° |
| 2026-04-19 04:07 | 38.84015 | -104.67297 | 6632 ft | 91 kts | 282° |
| 2026-04-19 04:07 | 38.84128 | -104.68103 | 6330 ft | 86 kts | 273° |
| 2026-04-19 04:08 | 38.84125 | -104.68651 | 6330 ft | 36 kts | 272° |
| 2026-04-19 04:08 | 38.84133 | -104.68867 | 6334 ft | 6 kts | 314° |
| 2026-04-19 04:08 | 38.84272 | -104.68469 | 6607 ft | 0 kts | 160° |
| 2026-04-19 04:08 | 38.83721 | -104.68505 | 6751 ft | 84 kts | 169° |
| 2026-04-19 04:09 | 38.83226 | -104.68709 | 6574 ft | 71 kts | 226° |
| 2026-04-19 04:09 | 38.82951 | -104.69166 | 6466 ft | 60 kts | 240° |
| 2026-04-19 04:09 | 38.82775 | -104.69182 | 6244 ft | 0 kts | 123° |
| 2026-04-19 04:09 | 38.82461 | -104.68693 | 6458 ft | 83 kts | 149° |
| 2026-04-19 04:10 | 38.81947 | -104.68586 | 6266 ft | 71 kts | 182° |
| 2026-04-19 04:10 | 38.81485 | -104.68581 | 6179 ft | 62 kts | 175° |
| 2026-04-19 04:10 | 38.81082 | -104.68583 | 6235 ft | 53 kts | 174° |
| 2026-04-19 04:10 | 38.80701 | -104.68590 | 6306 ft | 55 kts | 181° |
| 2026-04-19 04:11 | 38.80300 | -104.68567 | 6346 ft | 61 kts | 174° |
| 2026-04-19 04:11 | 38.79877 | -104.68552 | 6421 ft | 61 kts | 175° |
| 2026-04-19 04:11 | 38.79459 | -104.68515 | 6504 ft | 57 kts | 154° |
| 2026-04-19 04:11 | 38.79206 | -104.68154 | 6476 ft | 63 kts | 163° |
| 2026-04-19 04:12 | 38.78659 | -104.68061 | 6430 ft | 89 kts | 189° |
| 2026-04-19 04:12 | 38.78308 | -104.68283 | 6631 ft | 81 kts | 226° |
| 2026-04-19 04:12 | 38.78283 | -104.69271 | 6771 ft | 98 kts | 311° |
| 2026-04-19 04:12 | 38.78864 | -104.69859 | 6783 ft | 112 kts | 322° |
| 2026-04-19 04:13 | 38.79290 | -104.70275 | 6804 ft | 116 kts | 321° |
| 2026-04-19 04:13 | 38.79930 | -104.70889 | 6888 ft | 116 kts | 320° |
| 2026-04-19 04:13 | 38.80543 | -104.71597 | 6946 ft | 117 kts | 312° |
| 2026-04-19 04:13 | 38.81061 | -104.72355 | 7088 ft | 108 kts | 303° |
| 2026-04-19 04:14 | 38.81771 | -104.72620 | 7045 ft | 120 kts | 359° |
| 2026-04-19 04:14 | 38.82608 | -104.72600 | 7086 ft | 120 kts | 0° |
| 2026-04-19 04:14 | 38.83466 | -104.72562 | 6930 ft | 135 kts | 7° |
| 2026-04-19 04:14 | 38.84185 | -104.72993 | 7098 ft | 110 kts | 278° |
| 2026-04-19 04:15 | 38.84237 | -104.73943 | 7188 ft | 108 kts | 268° |
| 2026-04-19 04:15 | 38.84278 | -104.74871 | 7315 ft | 102 kts | 287° |
| 2026-04-19 04:15 | 38.84300 | -104.75390 | 6894 ft | 124 kts | 242° |
| 2026-04-19 04:15 | 38.84593 | -104.76058 | 7223 ft | 104 kts | 5° |
| 2026-04-19 04:16 | 38.85045 | -104.75385 | 7164 ft | 113 kts | 98° |
| 2026-04-19 04:16 | 38.84670 | -104.74545 | 7102 ft | 106 kts | 140° |
| 2026-04-19 04:16 | 38.84175 | -104.73929 | 6948 ft | 95 kts | 136° |
| 2026-04-19 04:16 | 38.83722 | -104.73346 | 6778 ft | 88 kts | 136° |
| 2026-04-19 04:17 | 38.83296 | -104.72788 | 6601 ft | 85 kts | 138° |
| 2026-04-19 04:17 | 38.82881 | -104.72269 | 6373 ft | 82 kts | 137° |
| 2026-04-19 04:17 | 38.82478 | -104.71752 | 6251 ft | 83 kts | 136° |
| 2026-04-19 04:17 | 38.82077 | -104.71231 | 6186 ft | 78 kts | 137° |
| 2026-04-19 04:18 | 38.81717 | -104.70782 | 6208 ft | 71 kts | 131° |
| 2026-04-19 04:18 | 38.81354 | -104.70311 | 6318 ft | 77 kts | 136° |
| 2026-04-19 04:18 | 38.80978 | -104.69803 | 6438 ft | 82 kts | 134° |
| 2026-04-19 04:18 | 38.80566 | -104.69266 | 6559 ft | 86 kts | 139° |
| 2026-04-19 04:19 | 38.80122 | -104.68740 | 6682 ft | 84 kts | 142° |
| 2026-04-19 04:19 | 38.80031 | -104.68107 | 6788 ft | 89 kts | 62° |
| 2026-04-19 04:19 | 38.80498 | -104.67541 | 6873 ft | 92 kts | 50° |
| 2026-04-19 04:19 | 38.81004 | -104.67004 | 6994 ft | 93 kts | 39° |
| 2026-04-19 04:20 | 38.81593 | -104.66949 | 7101 ft | 94 kts | 321° |
| 2026-04-19 04:20 | 38.82053 | -104.67624 | 7088 ft | 108 kts | 317° |
| 2026-04-19 04:20 | 38.82636 | -104.68282 | 7128 ft | 113 kts | 317° |
| 2026-04-19 04:20 | 38.83255 | -104.68859 | 7250 ft | 109 kts | 2° |
| 2026-04-19 04:21 | 38.83737 | -104.68264 | 7341 ft | 103 kts | 98° |
| 2026-04-19 04:21 | 38.83258 | -104.68051 | 7434 ft | 99 kts | 240° |
| 2026-04-19 04:21 | 38.83576 | -104.68768 | 7553 ft | 103 kts | 314° |
| 2026-04-19 04:21 | 38.84125 | -104.69420 | 7606 ft | 109 kts | 316° |
| 2026-04-19 04:22 | 38.84694 | -104.70060 | 7667 ft | 112 kts | 316° |
| 2026-04-19 04:22 | 38.85312 | -104.70729 | 7655 ft | 118 kts | 318° |
| 2026-04-19 04:22 | 38.85935 | -104.71405 | 7712 ft | 117 kts | 317° |
| 2026-04-19 04:22 | 38.86556 | -104.72094 | 7720 ft | 116 kts | 304° |
| 2026-04-19 04:23 | 38.86290 | -104.72839 | 7624 ft | 108 kts | 197° |
| 2026-04-19 04:23 | 38.85626 | -104.73190 | 7470 ft | 89 kts | 205° |
| 2026-04-19 04:23 | 38.85080 | -104.73406 | 7240 ft | 77 kts | 189° |
| 2026-04-19 04:23 | 38.84566 | -104.73521 | 7027 ft | 73 kts | 184° |
| 2026-04-19 04:24 | 38.84071 | -104.73467 | 6797 ft | 71 kts | 162° |
| 2026-04-19 04:24 | 38.83651 | -104.73205 | 6637 ft | 62 kts | 145° |
| 2026-04-19 04:24 | 38.83337 | -104.72835 | 6490 ft | 65 kts | 136° |
| 2026-04-19 04:24 | 38.83048 | -104.72462 | 6368 ft | 54 kts | 141° |
| 2026-04-19 04:25 | 38.82779 | -104.72111 | 6288 ft | 56 kts | 139° |
| 2026-04-19 04:25 | 38.82486 | -104.71757 | 6229 ft | 60 kts | 133° |
| 2026-04-19 04:25 | 38.82194 | -104.71374 | 6183 ft | 61 kts | 137° |
| 2026-04-19 04:25 | 38.81941 | -104.71051 | 6176 ft | 43 kts | 98° |
| 2026-04-19 04:26 | 38.81865 | -104.70687 | 6172 ft | 48 kts | 85° |
| 2026-04-19 04:26 | 38.81908 | -104.70430 | 6172 ft | 17 kts | 82° |
| 2026-04-19 04:26 | 38.81911 | -104.70403 | 6172 ft | 0 kts | 79° |